sensor_id;sensor_type;location;lat;lon;timestamp;P1;durP1;ratioP1;P2;durP2;ratioP2
18304;SDS011;9278;52.156;21.048;2023-01-28T00:01:04;68.83;;;25.30;;
18304;SDS011;9278;52.156;21.048;2023-01-28T00:03:32;63.60;;;24.77;;
18304;SDS011;9278;52.156;21.048;2023-01-28T00:06:01;65.23;;;23.73;;
18304;SDS011;9278;52.156;21.048;2023-01-28T00:08:30;61.70;;;24.13;;
18304;SDS011;9278;52.156;21.048;2023-01-28T00:10:59;62.70;;;24.20;;
18304;SDS011;9278;52.156;21.048;2023-01-28T00:13:30;69.73;;;25.83;;
18304;SDS011;9278;52.156;21.048;2023-01-28T00:16:00;68.07;;;25.00;;
18304;SDS011;9278;52.156;21.048;2023-01-28T00:18:30;62.30;;;24.47;;
18304;SDS011;9278;52.156;21.048;2023-01-28T00:21:00;68.07;;;25.57;;
18304;SDS011;9278;52.156;21.048;2023-01-28T00:23:31;66.33;;;23.73;;
18304;SDS011;9278;52.156;21.048;2023-01-28T00:26:05;64.67;;;24.67;;
18304;SDS011;9278;52.156;21.048;2023-01-28T00:28:35;67.37;;;25.27;;
18304;SDS011;9278;52.156;21.048;2023-01-28T00:31:07;68.17;;;24.77;;
18304;SDS011;9278;52.156;21.048;2023-01-28T00:33:36;65.73;;;24.97;;
18304;SDS011;9278;52.156;21.048;2023-01-28T00:36:04;66.43;;;25.23;;
18304;SDS011;9278;52.156;21.048;2023-01-28T00:38:33;68.23;;;24.93;;
18304;SDS011;9278;52.156;21.048;2023-01-28T00:41:08;64.93;;;25.37;;
18304;SDS011;9278;52.156;21.048;2023-01-28T00:43:38;72.50;;;25.83;;
18304;SDS011;9278;52.156;21.048;2023-01-28T00:46:08;65.20;;;25.07;;
18304;SDS011;9278;52.156;21.048;2023-01-28T00:48:37;69.90;;;24.90;;
18304;SDS011;9278;52.156;21.048;2023-01-28T00:51:06;71.57;;;25.73;;
18304;SDS011;9278;52.156;21.048;2023-01-28T00:53:36;67.73;;;24.77;;
18304;SDS011;9278;52.156;21.048;2023-01-28T00:56:06;64.33;;;23.87;;
18304;SDS011;9278;52.156;21.048;2023-01-28T00:58:35;64.93;;;24.17;;
18304;SDS011;9278;52.156;21.048;2023-01-28T01:01:09;60.63;;;23.00;;
18304;SDS011;9278;52.156;21.048;2023-01-28T01:03:41;62.50;;;23.33;;
18304;SDS011;9278;52.156;21.048;2023-01-28T01:06:09;62.20;;;24.30;;
18304;SDS011;9278;52.156;21.048;2023-01-28T01:08:41;61.07;;;23.23;;
18304;SDS011;9278;52.156;21.048;2023-01-28T01:11:16;58.53;;;22.13;;
18304;SDS011;9278;52.156;21.048;2023-01-28T01:13:48;54.60;;;21.60;;
18304;SDS011;9278;52.156;21.048;2023-01-28T01:16:19;58.00;;;21.93;;
18304;SDS011;9278;52.156;21.048;2023-01-28T01:18:49;59.27;;;22.60;;
18304;SDS011;9278;52.156;21.048;2023-01-28T01:21:19;62.23;;;22.67;;
18304;SDS011;9278;52.156;21.048;2023-01-28T01:23:50;62.87;;;23.33;;
18304;SDS011;9278;52.156;21.048;2023-01-28T01:26:20;60.30;;;22.47;;
18304;SDS011;9278;52.156;21.048;2023-01-28T01:28:49;67.57;;;23.50;;
18304;SDS011;9278;52.156;21.048;2023-01-28T01:31:18;58.67;;;22.63;;
18304;SDS011;9278;52.156;21.048;2023-01-28T01:33:49;58.93;;;22.60;;
18304;SDS011;9278;52.156;21.048;2023-01-28T01:36:18;55.77;;;21.63;;
18304;SDS011;9278;52.156;21.048;2023-01-28T01:38:51;58.00;;;22.70;;
18304;SDS011;9278;52.156;21.048;2023-01-28T01:41:25;64.33;;;23.43;;
18304;SDS011;9278;52.156;21.048;2023-01-28T01:43:56;61.03;;;21.80;;
18304;SDS011;9278;52.156;21.048;2023-01-28T01:46:31;53.37;;;20.60;;
18304;SDS011;9278;52.156;21.048;2023-01-28T02:12:07;58.37;;;22.10;;
18304;SDS011;9278;52.156;21.048;2023-01-28T02:14:40;59.90;;;21.53;;
18304;SDS011;9278;52.156;21.048;2023-01-28T02:17:10;64.23;;;22.77;;
18304;SDS011;9278;52.156;21.048;2023-01-28T02:19:42;60.50;;;21.97;;
18304;SDS011;9278;52.156;21.048;2023-01-28T02:22:24;58.07;;;22.60;;
18304;SDS011;9278;52.156;21.048;2023-01-28T02:25:20;59.63;;;21.40;;
18304;SDS011;9278;52.156;21.048;2023-01-28T02:28:19;62.23;;;21.60;;
18304;SDS011;9278;52.156;21.048;2023-01-28T02:30:55;53.10;;;21.40;;
18304;SDS011;9278;52.156;21.048;2023-01-28T02:33:32;52.97;;;20.97;;
18304;SDS011;9278;52.156;21.048;2023-01-28T02:36:08;62.70;;;22.43;;
18304;SDS011;9278;52.156;21.048;2023-01-28T02:38:45;57.67;;;22.40;;
18304;SDS011;9278;52.156;21.048;2023-01-28T02:41:17;60.07;;;21.70;;
18304;SDS011;9278;52.156;21.048;2023-01-28T02:43:51;53.53;;;21.07;;
18304;SDS011;9278;52.156;21.048;2023-01-28T02:46:21;57.70;;;21.33;;
18304;SDS011;9278;52.156;21.048;2023-01-28T02:49:17;58.13;;;21.80;;
18304;SDS011;9278;52.156;21.048;2023-01-28T02:51:52;58.67;;;21.67;;
18304;SDS011;9278;52.156;21.048;2023-01-28T02:54:44;59.47;;;22.47;;
18304;SDS011;9278;52.156;21.048;2023-01-28T02:57:24;63.90;;;22.03;;
18304;SDS011;9278;52.156;21.048;2023-01-28T03:00:05;61.07;;;22.73;;
18304;SDS011;9278;52.156;21.048;2023-01-28T03:02:41;61.83;;;21.43;;
18304;SDS011;9278;52.156;21.048;2023-01-28T03:05:18;62.50;;;22.47;;
18304;SDS011;9278;52.156;21.048;2023-01-28T03:07:50;60.03;;;22.57;;
18304;SDS011;9278;52.156;21.048;2023-01-28T03:10:20;60.23;;;22.07;;
18304;SDS011;9278;52.156;21.048;2023-01-28T03:12:52;70.13;;;24.10;;
18304;SDS011;9278;52.156;21.048;2023-01-28T03:15:42;68.73;;;24.03;;
18304;SDS011;9278;52.156;21.048;2023-01-28T03:18:34;64.57;;;23.67;;
18304;SDS011;9278;52.156;21.048;2023-01-28T03:21:25;69.00;;;22.90;;
18304;SDS011;9278;52.156;21.048;2023-01-28T03:24:16;72.63;;;23.67;;
18304;SDS011;9278;52.156;21.048;2023-01-28T03:27:09;63.30;;;23.40;;
18304;SDS011;9278;52.156;21.048;2023-01-28T03:30:06;63.63;;;23.43;;
18304;SDS011;9278;52.156;21.048;2023-01-28T03:33:01;59.50;;;22.07;;
18304;SDS011;9278;52.156;21.048;2023-01-28T03:35:48;65.40;;;22.17;;
18304;SDS011;9278;52.156;21.048;2023-01-28T03:38:34;60.37;;;22.37;;
18304;SDS011;9278;52.156;21.048;2023-01-28T03:41:12;64.43;;;22.47;;
18304;SDS011;9278;52.156;21.048;2023-01-28T03:43:47;61.00;;;20.63;;
18304;SDS011;9278;52.156;21.048;2023-01-28T03:46:15;54.90;;;20.70;;
18304;SDS011;9278;52.156;21.048;2023-01-28T03:48:45;55.67;;;21.97;;
18304;SDS011;9278;52.156;21.048;2023-01-28T03:51:16;56.23;;;21.63;;
18304;SDS011;9278;52.156;21.048;2023-01-28T03:53:44;54.93;;;20.57;;
18304;SDS011;9278;52.156;21.048;2023-01-28T03:56:12;56.40;;;20.87;;
18304;SDS011;9278;52.156;21.048;2023-01-28T03:58:45;49.50;;;19.13;;
18304;SDS011;9278;52.156;21.048;2023-01-28T04:01:19;48.70;;;19.27;;
18304;SDS011;9278;52.156;21.048;2023-01-28T04:03:49;46.77;;;18.67;;
18304;SDS011;9278;52.156;21.048;2023-01-28T04:06:25;50.30;;;19.17;;
18304;SDS011;9278;52.156;21.048;2023-01-28T04:09:03;43.67;;;17.70;;
18304;SDS011;9278;52.156;21.048;2023-01-28T04:11:39;45.10;;;18.27;;
18304;SDS011;9278;52.156;21.048;2023-01-28T04:14:08;47.13;;;19.07;;
18304;SDS011;9278;52.156;21.048;2023-01-28T04:16:48;43.47;;;17.13;;
18304;SDS011;9278;52.156;21.048;2023-01-28T04:19:19;46.03;;;18.63;;
18304;SDS011;9278;52.156;21.048;2023-01-28T04:21:47;45.77;;;18.70;;
18304;SDS011;9278;52.156;21.048;2023-01-28T04:24:19;39.87;;;17.33;;
18304;SDS011;9278;52.156;21.048;2023-01-28T04:26:48;43.30;;;18.27;;
18304;SDS011;9278;52.156;21.048;2023-01-28T04:29:17;46.77;;;18.40;;
18304;SDS011;9278;52.156;21.048;2023-01-28T04:31:47;43.73;;;18.03;;
18304;SDS011;9278;52.156;21.048;2023-01-28T04:34:23;42.33;;;17.40;;
18304;SDS011;9278;52.156;21.048;2023-01-28T04:37:14;39.93;;;16.40;;
18304;SDS011;9278;52.156;21.048;2023-01-28T04:40:06;45.47;;;17.23;;
18304;SDS011;9278;52.156;21.048;2023-01-28T04:42:40;37.63;;;16.07;;
18304;SDS011;9278;52.156;21.048;2023-01-28T04:45:27;40.73;;;16.10;;
18304;SDS011;9278;52.156;21.048;2023-01-28T04:48:19;40.27;;;16.80;;
18304;SDS011;9278;52.156;21.048;2023-01-28T04:51:09;40.27;;;16.00;;
18304;SDS011;9278;52.156;21.048;2023-01-28T04:53:56;38.90;;;16.50;;
18304;SDS011;9278;52.156;21.048;2023-01-28T04:56:28;40.10;;;15.77;;
18304;SDS011;9278;52.156;21.048;2023-01-28T04:58:56;40.47;;;16.23;;
18304;SDS011;9278;52.156;21.048;2023-01-28T05:01:25;43.30;;;16.87;;
18304;SDS011;9278;52.156;21.048;2023-01-28T05:03:54;41.90;;;16.23;;
18304;SDS011;9278;52.156;21.048;2023-01-28T05:06:26;37.40;;;16.57;;
18304;SDS011;9278;52.156;21.048;2023-01-28T05:08:58;38.90;;;15.87;;
18304;SDS011;9278;52.156;21.048;2023-01-28T05:11:28;41.90;;;16.87;;
18304;SDS011;9278;52.156;21.048;2023-01-28T05:14:00;39.87;;;16.17;;
18304;SDS011;9278;52.156;21.048;2023-01-28T05:16:37;41.57;;;16.43;;
18304;SDS011;9278;52.156;21.048;2023-01-28T05:19:06;40.03;;;16.63;;
18304;SDS011;9278;52.156;21.048;2023-01-28T05:21:39;38.97;;;16.07;;
18304;SDS011;9278;52.156;21.048;2023-01-28T05:24:28;38.87;;;16.43;;
18304;SDS011;9278;52.156;21.048;2023-01-28T05:26:57;37.13;;;15.87;;
18304;SDS011;9278;52.156;21.048;2023-01-28T05:29:25;34.43;;;15.17;;
18304;SDS011;9278;52.156;21.048;2023-01-28T05:31:53;36.17;;;15.43;;
18304;SDS011;9278;52.156;21.048;2023-01-28T05:34:22;41.10;;;15.93;;
18304;SDS011;9278;52.156;21.048;2023-01-28T05:36:52;33.40;;;14.83;;
18304;SDS011;9278;52.156;21.048;2023-01-28T05:39:38;38.93;;;15.77;;
18304;SDS011;9278;52.156;21.048;2023-01-28T05:42:07;37.37;;;14.97;;
18304;SDS011;9278;52.156;21.048;2023-01-28T05:44:42;35.03;;;14.83;;
18304;SDS011;9278;52.156;21.048;2023-01-28T05:47:17;35.87;;;15.43;;
18304;SDS011;9278;52.156;21.048;2023-01-28T05:50:00;35.20;;;15.30;;
18304;SDS011;9278;52.156;21.048;2023-01-28T05:52:43;35.13;;;15.53;;
18304;SDS011;9278;52.156;21.048;2023-01-28T05:55:22;33.83;;;15.33;;
18304;SDS011;9278;52.156;21.048;2023-01-28T05:57:51;34.67;;;15.70;;
18304;SDS011;9278;52.156;21.048;2023-01-28T06:00:22;33.10;;;14.80;;
18304;SDS011;9278;52.156;21.048;2023-01-28T06:02:50;37.90;;;15.33;;
18304;SDS011;9278;52.156;21.048;2023-01-28T06:05:19;33.87;;;15.73;;
18304;SDS011;9278;52.156;21.048;2023-01-28T06:07:49;37.80;;;15.83;;
18304;SDS011;9278;52.156;21.048;2023-01-28T06:10:18;35.87;;;15.63;;
18304;SDS011;9278;52.156;21.048;2023-01-28T06:12:47;39.83;;;15.43;;
18304;SDS011;9278;52.156;21.048;2023-01-28T06:15:50;35.90;;;15.60;;
18304;SDS011;9278;52.156;21.048;2023-01-28T06:18:43;34.40;;;13.93;;
18304;SDS011;9278;52.156;21.048;2023-01-28T06:21:11;36.67;;;15.77;;
18304;SDS011;9278;52.156;21.048;2023-01-28T06:23:41;35.23;;;15.20;;
18304;SDS011;9278;52.156;21.048;2023-01-28T06:26:09;38.47;;;16.00;;
18304;SDS011;9278;52.156;21.048;2023-01-28T06:28:42;34.47;;;14.67;;
18304;SDS011;9278;52.156;21.048;2023-01-28T06:31:10;35.00;;;14.37;;
18304;SDS011;9278;52.156;21.048;2023-01-28T06:33:38;34.47;;;15.20;;
18304;SDS011;9278;52.156;21.048;2023-01-28T06:36:07;37.93;;;14.57;;
18304;SDS011;9278;52.156;21.048;2023-01-28T06:38:35;35.67;;;15.43;;
18304;SDS011;9278;52.156;21.048;2023-01-28T06:41:05;35.13;;;14.70;;
18304;SDS011;9278;52.156;21.048;2023-01-28T06:43:33;39.03;;;15.17;;
18304;SDS011;9278;52.156;21.048;2023-01-28T06:46:02;39.10;;;15.90;;
18304;SDS011;9278;52.156;21.048;2023-01-28T06:48:30;35.73;;;15.60;;
18304;SDS011;9278;52.156;21.048;2023-01-28T06:50:58;39.97;;;16.27;;
18304;SDS011;9278;52.156;21.048;2023-01-28T06:53:27;37.57;;;15.40;;
18304;SDS011;9278;52.156;21.048;2023-01-28T06:55:55;41.67;;;15.27;;
18304;SDS011;9278;52.156;21.048;2023-01-28T06:58:24;37.87;;;15.60;;
18304;SDS011;9278;52.156;21.048;2023-01-28T07:00:53;42.63;;;15.37;;
18304;SDS011;9278;52.156;21.048;2023-01-28T07:03:22;42.30;;;16.23;;
18304;SDS011;9278;52.156;21.048;2023-01-28T07:05:50;45.03;;;17.13;;
18304;SDS011;9278;52.156;21.048;2023-01-28T07:08:18;43.40;;;15.63;;
18304;SDS011;9278;52.156;21.048;2023-01-28T07:10:46;41.60;;;15.77;;
18304;SDS011;9278;52.156;21.048;2023-01-28T07:13:15;42.17;;;14.67;;
18304;SDS011;9278;52.156;21.048;2023-01-28T07:15:44;45.30;;;16.53;;
18304;SDS011;9278;52.156;21.048;2023-01-28T07:18:14;44.97;;;16.77;;
18304;SDS011;9278;52.156;21.048;2023-01-28T07:20:42;42.07;;;15.63;;
18304;SDS011;9278;52.156;21.048;2023-01-28T07:23:11;44.13;;;16.73;;
18304;SDS011;9278;52.156;21.048;2023-01-28T07:25:39;39.30;;;15.23;;
18304;SDS011;9278;52.156;21.048;2023-01-28T07:28:07;41.23;;;16.50;;
18304;SDS011;9278;52.156;21.048;2023-01-28T07:30:36;39.27;;;15.90;;
18304;SDS011;9278;52.156;21.048;2023-01-28T07:33:06;38.70;;;15.67;;
18304;SDS011;9278;52.156;21.048;2023-01-28T07:35:34;40.90;;;15.33;;
18304;SDS011;9278;52.156;21.048;2023-01-28T07:38:02;34.77;;;15.03;;
18304;SDS011;9278;52.156;21.048;2023-01-28T07:40:31;40.00;;;15.80;;
18304;SDS011;9278;52.156;21.048;2023-01-28T07:42:59;44.70;;;15.53;;
18304;SDS011;9278;52.156;21.048;2023-01-28T07:45:35;43.30;;;16.27;;
18304;SDS011;9278;52.156;21.048;2023-01-28T07:48:04;42.07;;;16.30;;
18304;SDS011;9278;52.156;21.048;2023-01-28T07:50:36;36.53;;;13.97;;
18304;SDS011;9278;52.156;21.048;2023-01-28T07:53:06;38.53;;;14.83;;
18304;SDS011;9278;52.156;21.048;2023-01-28T07:55:36;42.50;;;15.33;;
18304;SDS011;9278;52.156;21.048;2023-01-28T07:58:05;41.53;;;15.03;;
18304;SDS011;9278;52.156;21.048;2023-01-28T08:00:35;45.30;;;15.83;;
18304;SDS011;9278;52.156;21.048;2023-01-28T08:03:05;40.40;;;15.97;;
18304;SDS011;9278;52.156;21.048;2023-01-28T08:05:40;41.90;;;15.63;;
18304;SDS011;9278;52.156;21.048;2023-01-28T08:08:11;43.27;;;16.20;;
18304;SDS011;9278;52.156;21.048;2023-01-28T08:10:40;38.77;;;15.83;;
18304;SDS011;9278;52.156;21.048;2023-01-28T08:13:09;37.97;;;16.17;;
18304;SDS011;9278;52.156;21.048;2023-01-28T08:15:39;38.77;;;16.27;;
18304;SDS011;9278;52.156;21.048;2023-01-28T08:18:09;40.13;;;16.10;;
18304;SDS011;9278;52.156;21.048;2023-01-28T08:20:39;36.80;;;15.53;;
18304;SDS011;9278;52.156;21.048;2023-01-28T08:23:10;38.83;;;15.67;;
18304;SDS011;9278;52.156;21.048;2023-01-28T08:25:40;37.27;;;15.77;;
18304;SDS011;9278;52.156;21.048;2023-01-28T08:28:08;36.00;;;16.13;;
18304;SDS011;9278;52.156;21.048;2023-01-28T08:30:37;41.67;;;17.13;;
18304;SDS011;9278;52.156;21.048;2023-01-28T08:33:06;44.07;;;16.43;;
18304;SDS011;9278;52.156;21.048;2023-01-28T08:35:37;41.90;;;16.97;;
18304;SDS011;9278;52.156;21.048;2023-01-28T08:38:06;38.63;;;15.77;;
18304;SDS011;9278;52.156;21.048;2023-01-28T08:40:35;35.07;;;15.53;;
18304;SDS011;9278;52.156;21.048;2023-01-28T08:43:04;36.27;;;15.43;;
18304;SDS011;9278;52.156;21.048;2023-01-28T08:45:32;37.03;;;16.80;;
18304;SDS011;9278;52.156;21.048;2023-01-28T08:48:01;34.37;;;14.97;;
18304;SDS011;9278;52.156;21.048;2023-01-28T08:50:33;33.10;;;14.37;;
18304;SDS011;9278;52.156;21.048;2023-01-28T08:53:03;35.73;;;15.33;;
18304;SDS011;9278;52.156;21.048;2023-01-28T08:55:32;35.13;;;15.30;;
18304;SDS011;9278;52.156;21.048;2023-01-28T08:58:01;34.80;;;15.67;;
18304;SDS011;9278;52.156;21.048;2023-01-28T09:00:30;36.23;;;15.60;;
18304;SDS011;9278;52.156;21.048;2023-01-28T09:02:59;38.33;;;15.87;;
18304;SDS011;9278;52.156;21.048;2023-01-28T09:05:30;38.37;;;15.90;;
18304;SDS011;9278;52.156;21.048;2023-01-28T09:08:01;34.17;;;15.43;;
18304;SDS011;9278;52.156;21.048;2023-01-28T09:10:30;34.30;;;15.70;;
18304;SDS011;9278;52.156;21.048;2023-01-28T09:12:58;32.17;;;15.40;;
18304;SDS011;9278;52.156;21.048;2023-01-28T09:15:31;35.60;;;15.47;;
18304;SDS011;9278;52.156;21.048;2023-01-28T09:17:59;33.23;;;15.30;;
18304;SDS011;9278;52.156;21.048;2023-01-28T09:20:28;34.77;;;14.53;;
18304;SDS011;9278;52.156;21.048;2023-01-28T09:22:59;32.90;;;15.17;;
18304;SDS011;9278;52.156;21.048;2023-01-28T09:25:28;29.83;;;14.03;;
18304;SDS011;9278;52.156;21.048;2023-01-28T09:27:57;32.27;;;14.80;;
18304;SDS011;9278;52.156;21.048;2023-01-28T09:30:26;30.50;;;13.90;;
18304;SDS011;9278;52.156;21.048;2023-01-28T09:32:55;31.60;;;14.87;;
18304;SDS011;9278;52.156;21.048;2023-01-28T09:35:25;33.10;;;15.50;;
18304;SDS011;9278;52.156;21.048;2023-01-28T09:37:55;29.13;;;14.20;;
18304;SDS011;9278;52.156;21.048;2023-01-28T09:40:29;32.00;;;14.07;;
18304;SDS011;9278;52.156;21.048;2023-01-28T09:43:07;27.77;;;13.63;;
18304;SDS011;9278;52.156;21.048;2023-01-28T09:45:54;27.53;;;13.83;;
18304;SDS011;9278;52.156;21.048;2023-01-28T09:48:27;30.50;;;13.67;;
18304;SDS011;9278;52.156;21.048;2023-01-28T09:50:59;29.10;;;14.70;;
18304;SDS011;9278;52.156;21.048;2023-01-28T09:53:28;27.47;;;13.77;;
18304;SDS011;9278;52.156;21.048;2023-01-28T09:56:01;28.83;;;13.60;;
18304;SDS011;9278;52.156;21.048;2023-01-28T09:58:32;28.23;;;13.93;;
18304;SDS011;9278;52.156;21.048;2023-01-28T10:01:02;28.10;;;13.97;;
18304;SDS011;9278;52.156;21.048;2023-01-28T10:03:46;27.20;;;14.03;;
18304;SDS011;9278;52.156;21.048;2023-01-28T10:06:23;28.53;;;14.40;;
18304;SDS011;9278;52.156;21.048;2023-01-28T10:09:00;34.67;;;14.00;;
18304;SDS011;9278;52.156;21.048;2023-01-28T10:11:45;31.00;;;14.10;;
18304;SDS011;9278;52.156;21.048;2023-01-28T10:14:25;31.17;;;14.93;;
18304;SDS011;9278;52.156;21.048;2023-01-28T10:16:59;30.53;;;15.03;;
18304;SDS011;9278;52.156;21.048;2023-01-28T10:19:34;30.63;;;14.93;;
18304;SDS011;9278;52.156;21.048;2023-01-28T10:22:08;32.23;;;16.40;;
18304;SDS011;9278;52.156;21.048;2023-01-28T10:24:44;31.77;;;15.00;;
18304;SDS011;9278;52.156;21.048;2023-01-28T10:27:18;31.83;;;15.83;;
18304;SDS011;9278;52.156;21.048;2023-01-28T10:29:50;34.50;;;15.67;;
18304;SDS011;9278;52.156;21.048;2023-01-28T10:32:21;32.40;;;15.63;;
18304;SDS011;9278;52.156;21.048;2023-01-28T10:34:56;31.43;;;14.60;;
18304;SDS011;9278;52.156;21.048;2023-01-28T10:37:27;30.97;;;14.97;;
18304;SDS011;9278;52.156;21.048;2023-01-28T10:39:58;31.60;;;14.33;;
18304;SDS011;9278;52.156;21.048;2023-01-28T10:42:30;33.67;;;14.87;;
18304;SDS011;9278;52.156;21.048;2023-01-28T10:45:01;33.13;;;14.97;;
18304;SDS011;9278;52.156;21.048;2023-01-28T10:47:37;30.47;;;14.70;;
18304;SDS011;9278;52.156;21.048;2023-01-28T10:50:09;34.47;;;15.37;;
18304;SDS011;9278;52.156;21.048;2023-01-28T10:52:51;33.10;;;16.00;;
18304;SDS011;9278;52.156;21.048;2023-01-28T10:55:20;29.40;;;14.57;;
18304;SDS011;9278;52.156;21.048;2023-01-28T10:57:51;26.00;;;14.47;;
18304;SDS011;9278;52.156;21.048;2023-01-28T11:00:21;34.87;;;14.33;;
18304;SDS011;9278;52.156;21.048;2023-01-28T11:02:52;31.77;;;14.73;;
18304;SDS011;9278;52.156;21.048;2023-01-28T11:05:22;31.07;;;15.07;;
18304;SDS011;9278;52.156;21.048;2023-01-28T11:08:02;32.37;;;14.17;;
18304;SDS011;9278;52.156;21.048;2023-01-28T11:10:32;31.70;;;15.17;;
18304;SDS011;9278;52.156;21.048;2023-01-28T11:13:04;26.60;;;14.33;;
18304;SDS011;9278;52.156;21.048;2023-01-28T11:15:44;30.73;;;14.83;;
18304;SDS011;9278;52.156;21.048;2023-01-28T11:18:15;29.27;;;14.13;;
18304;SDS011;9278;52.156;21.048;2023-01-28T11:20:49;31.17;;;14.83;;
18304;SDS011;9278;52.156;21.048;2023-01-28T11:23:21;26.07;;;12.07;;
18304;SDS011;9278;52.156;21.048;2023-01-28T11:28:44;27.40;;;12.43;;
18304;SDS011;9278;52.156;21.048;2023-01-28T11:31:14;25.60;;;13.03;;
18304;SDS011;9278;52.156;21.048;2023-01-28T11:33:44;26.40;;;12.53;;
18304;SDS011;9278;52.156;21.048;2023-01-28T11:36:17;27.83;;;13.17;;
18304;SDS011;9278;52.156;21.048;2023-01-28T11:38:47;31.67;;;12.70;;
18304;SDS011;9278;52.156;21.048;2023-01-28T11:41:18;26.43;;;13.10;;
18304;SDS011;9278;52.156;21.048;2023-01-28T11:43:54;25.40;;;12.97;;
18304;SDS011;9278;52.156;21.048;2023-01-28T11:49:22;24.90;;;12.87;;
18304;SDS011;9278;52.156;21.048;2023-01-28T11:52:00;22.13;;;11.33;;
18304;SDS011;9278;52.156;21.048;2023-01-28T11:54:40;24.17;;;12.43;;
18304;SDS011;9278;52.156;21.048;2023-01-28T11:57:22;26.67;;;13.10;;
18304;SDS011;9278;52.156;21.048;2023-01-28T11:59:58;24.57;;;12.93;;
18304;SDS011;9278;52.156;21.048;2023-01-28T12:02:47;25.77;;;12.70;;
18304;SDS011;9278;52.156;21.048;2023-01-28T12:08:11;26.57;;;12.63;;
18304;SDS011;9278;52.156;21.048;2023-01-28T12:10:51;25.40;;;12.90;;
18304;SDS011;9278;52.156;21.048;2023-01-28T12:13:36;27.40;;;13.53;;
18304;SDS011;9278;52.156;21.048;2023-01-28T12:16:23;27.73;;;13.17;;
18304;SDS011;9278;52.156;21.048;2023-01-28T12:19:13;28.87;;;12.83;;
18304;SDS011;9278;52.156;21.048;2023-01-28T12:22:08;28.07;;;13.43;;
18304;SDS011;9278;52.156;21.048;2023-01-28T12:24:50;28.07;;;11.83;;
18304;SDS011;9278;52.156;21.048;2023-01-28T12:27:33;30.73;;;13.13;;
18304;SDS011;9278;52.156;21.048;2023-01-28T12:30:16;23.20;;;12.50;;
18304;SDS011;9278;52.156;21.048;2023-01-28T12:32:56;28.97;;;12.00;;
18304;SDS011;9278;52.156;21.048;2023-01-28T12:35:45;26.63;;;12.53;;
18304;SDS011;9278;52.156;21.048;2023-01-28T12:38:23;27.23;;;12.33;;
18304;SDS011;9278;52.156;21.048;2023-01-28T12:41:02;22.73;;;12.43;;
18304;SDS011;9278;52.156;21.048;2023-01-28T12:43:47;26.27;;;12.80;;
18304;SDS011;9278;52.156;21.048;2023-01-28T12:46:28;23.03;;;13.10;;
18304;SDS011;9278;52.156;21.048;2023-01-28T12:49:06;26.17;;;13.03;;
18304;SDS011;9278;52.156;21.048;2023-01-28T12:51:46;26.23;;;13.50;;
18304;SDS011;9278;52.156;21.048;2023-01-28T12:54:21;28.93;;;13.50;;
18304;SDS011;9278;52.156;21.048;2023-01-28T12:56:53;27.90;;;13.20;;
18304;SDS011;9278;52.156;21.048;2023-01-28T12:59:24;25.13;;;12.67;;
18304;SDS011;9278;52.156;21.048;2023-01-28T13:02:00;23.27;;;12.03;;
18304;SDS011;9278;52.156;21.048;2023-01-28T13:04:41;26.33;;;13.17;;
18304;SDS011;9278;52.156;21.048;2023-01-28T13:07:15;24.43;;;12.43;;
18304;SDS011;9278;52.156;21.048;2023-01-28T13:09:50;28.33;;;13.70;;
18304;SDS011;9278;52.156;21.048;2023-01-28T13:12:24;21.13;;;11.20;;
18304;SDS011;9278;52.156;21.048;2023-01-28T13:14:53;21.43;;;10.90;;
18304;SDS011;9278;52.156;21.048;2023-01-28T13:17:25;26.17;;;12.13;;
18304;SDS011;9278;52.156;21.048;2023-01-28T13:19:57;22.77;;;12.03;;
18304;SDS011;9278;52.156;21.048;2023-01-28T13:22:27;21.03;;;10.47;;
18304;SDS011;9278;52.156;21.048;2023-01-28T13:25:10;24.87;;;11.73;;
18304;SDS011;9278;52.156;21.048;2023-01-28T13:27:52;21.77;;;11.37;;
18304;SDS011;9278;52.156;21.048;2023-01-28T13:30:23;24.83;;;11.57;;
18304;SDS011;9278;52.156;21.048;2023-01-28T13:32:55;22.77;;;11.77;;
18304;SDS011;9278;52.156;21.048;2023-01-28T13:35:33;22.03;;;10.97;;
18304;SDS011;9278;52.156;21.048;2023-01-28T13:38:07;21.83;;;10.93;;
18304;SDS011;9278;52.156;21.048;2023-01-28T13:40:37;19.40;;;10.30;;
18304;SDS011;9278;52.156;21.048;2023-01-28T13:45:55;19.70;;;9.90;;
18304;SDS011;9278;52.156;21.048;2023-01-28T13:48:28;17.17;;;9.13;;
18304;SDS011;9278;52.156;21.048;2023-01-28T13:51:01;17.70;;;9.33;;
18304;SDS011;9278;52.156;21.048;2023-01-28T13:53:34;18.97;;;10.17;;
18304;SDS011;9278;52.156;21.048;2023-01-28T13:56:09;19.60;;;10.03;;
18304;SDS011;9278;52.156;21.048;2023-01-28T13:58:52;21.27;;;9.93;;
18304;SDS011;9278;52.156;21.048;2023-01-28T14:04:48;18.03;;;8.83;;
18304;SDS011;9278;52.156;21.048;2023-01-28T14:07:37;20.07;;;8.90;;
18304;SDS011;9278;52.156;21.048;2023-01-28T14:10:30;20.87;;;10.10;;
18304;SDS011;9278;52.156;21.048;2023-01-28T14:13:09;21.13;;;10.13;;
18304;SDS011;9278;52.156;21.048;2023-01-28T14:16:14;19.47;;;9.27;;
18304;SDS011;9278;52.156;21.048;2023-01-28T14:18:57;20.20;;;9.67;;
18304;SDS011;9278;52.156;21.048;2023-01-28T14:21:30;20.80;;;10.37;;
18304;SDS011;9278;52.156;21.048;2023-01-28T14:24:03;20.93;;;10.93;;
18304;SDS011;9278;52.156;21.048;2023-01-28T14:26:35;21.43;;;10.60;;
18304;SDS011;9278;52.156;21.048;2023-01-28T14:29:22;19.77;;;10.73;;
18304;SDS011;9278;52.156;21.048;2023-01-28T14:32:10;19.40;;;9.63;;
18304;SDS011;9278;52.156;21.048;2023-01-28T14:34:42;20.40;;;10.80;;
18304;SDS011;9278;52.156;21.048;2023-01-28T14:37:12;23.37;;;11.77;;
18304;SDS011;9278;52.156;21.048;2023-01-28T14:39:46;22.00;;;11.27;;
18304;SDS011;9278;52.156;21.048;2023-01-28T14:42:19;23.27;;;11.07;;
18304;SDS011;9278;52.156;21.048;2023-01-28T14:44:52;22.30;;;11.57;;
18304;SDS011;9278;52.156;21.048;2023-01-28T14:47:35;22.20;;;11.83;;
18304;SDS011;9278;52.156;21.048;2023-01-28T14:50:23;22.90;;;11.20;;
18304;SDS011;9278;52.156;21.048;2023-01-28T14:53:03;25.33;;;11.77;;
18304;SDS011;9278;52.156;21.048;2023-01-28T14:55:50;24.13;;;11.27;;
18304;SDS011;9278;52.156;21.048;2023-01-28T14:58:25;24.33;;;10.90;;
18304;SDS011;9278;52.156;21.048;2023-01-28T15:00:57;19.07;;;9.73;;
18304;SDS011;9278;52.156;21.048;2023-01-28T15:03:27;16.37;;;8.80;;
18304;SDS011;9278;52.156;21.048;2023-01-28T15:06:03;19.10;;;9.50;;
18304;SDS011;9278;52.156;21.048;2023-01-28T15:08:33;19.83;;;9.67;;
18304;SDS011;9278;52.156;21.048;2023-01-28T15:11:03;16.90;;;9.00;;
18304;SDS011;9278;52.156;21.048;2023-01-28T15:13:36;15.47;;;8.23;;
18304;SDS011;9278;52.156;21.048;2023-01-28T15:16:07;14.17;;;7.50;;
18304;SDS011;9278;52.156;21.048;2023-01-28T15:18:46;14.43;;;7.47;;
18304;SDS011;9278;52.156;21.048;2023-01-28T15:21:18;12.77;;;7.37;;
18304;SDS011;9278;52.156;21.048;2023-01-28T15:23:47;13.80;;;6.97;;
18304;SDS011;9278;52.156;21.048;2023-01-28T15:26:21;10.83;;;6.10;;
18304;SDS011;9278;52.156;21.048;2023-01-28T15:28:52;11.30;;;5.73;;
18304;SDS011;9278;52.156;21.048;2023-01-28T15:31:21;10.47;;;5.97;;
18304;SDS011;9278;52.156;21.048;2023-01-28T15:33:55;12.53;;;6.40;;
18304;SDS011;9278;52.156;21.048;2023-01-28T15:36:24;11.50;;;6.30;;
18304;SDS011;9278;52.156;21.048;2023-01-28T15:38:53;10.47;;;6.10;;
18304;SDS011;9278;52.156;21.048;2023-01-28T15:41:25;10.53;;;5.20;;